Eko 4 — SVAR8 — position and weather

sailwx.info

Track history (hours):
 
Tides and Currents Weather Stations Pressure Air Temp Water Temp Dewpoint Dewpoint Depression Visibility Wind Speed Wind Dir Waves Ship Positions

Eko 4

Last reported at 2015-Mar-29 23:33 UTC. Time now 2015-Mar-31 06:43 UTC.
Position N 37°12' E 025°48'.

Length 88 m; draft 5.6 m.

Type: Ship (hazmat cat A). MMSI: 240912000.

Date/timePositionNaut miles runAvg speedWind from/ knotsBaromVisibWave heightAir tempDewpointWater temp
2015-Mar-29 23:33N 37°12' E 025°48'19 9.7
2015-Mar-29 21:33N 37°16' E 025°25'10 9.4
2015-Mar-29 20:33N 37°18' E 025°13'12 9.5
2015-Mar-29 19:15N 37°20' E 024°57'61 9.2
2015-Mar-29 12:33N 37°39' E 023°44'9 9.2
2015-Mar-29 11:33N 37°47' E 023°38'9 9.3
2015-Mar-29 10:33N 37°56' E 023°36'7 6.6
2015-Mar-29 09:33N 38°01' E 023°31'1 0.2
2015-Mar-29 06:05N 38°02' E 023°31'1 0.1
2015-Mar-28 11:33N 38°01' E 023°32'8 7.8
2015-Mar-28 10:33N 37°54' E 023°37'10 9.6
2015-Mar-28 09:33N 37°46' E 023°42'  
2015-Mar-24 15:33N 37°42' E 023°41'9 9.1
2015-Mar-24 14:33N 37°51' E 023°36'7 0.3
2015-Mar-23 15:03N 37°57' E 023°33'4 8.3
2015-Mar-23 14:33N 37°54' E 023°37'10 9.6
2015-Mar-23 13:33N 37°46' E 023°42'108 9.7
2015-Mar-23 02:31N 36°46' E 025°34'19 9.7
2015-Mar-23 00:32N 36°43' E 025°58'  
Track history (hours):
 
Tides and Currents Weather Stations Pressure Air Temp Water Temp Dewpoint Dewpoint Depression Visibility Wind Speed Wind Dir Waves Ship Positions

Eko 4

Last reported at 2015-Mar-29 23:33 UTC. Time now 2015-Mar-31 06:43 UTC.
Position N 37°12' E 025°48'.

Length 88 m; draft 5.6 m.

Type: Ship (hazmat cat A). MMSI: 240912000.

Date/timePositionNaut miles runAvg speedWind from/ knotsBaromVisibWave heightAir tempDewpointWater temp
2015-Mar-29 23:33N 37°12' E 025°48'19 9.7
2015-Mar-29 21:33N 37°16' E 025°25'10 9.4
2015-Mar-29 20:33N 37°18' E 025°13'12 9.5
2015-Mar-29 19:15N 37°20' E 024°57'61 9.2
2015-Mar-29 12:33N 37°39' E 023°44'9 9.2
2015-Mar-29 11:33N 37°47' E 023°38'9 9.3
2015-Mar-29 10:33N 37°56' E 023°36'7 6.6
2015-Mar-29 09:33N 38°01' E 023°31'1 0.2
2015-Mar-29 06:05N 38°02' E 023°31'1 0.1
2015-Mar-28 11:33N 38°01' E 023°32'8 7.8
2015-Mar-28 10:33N 37°54' E 023°37'10 9.6
2015-Mar-28 09:33N 37°46' E 023°42'  
2015-Mar-24 15:33N 37°42' E 023°41'9 9.1
2015-Mar-24 14:33N 37°51' E 023°36'7 0.3
2015-Mar-23 15:03N 37°57' E 023°33'4 8.3
2015-Mar-23 14:33N 37°54' E 023°37'10 9.6
2015-Mar-23 13:33N 37°46' E 023°42'108 9.7
2015-Mar-23 02:31N 36°46' E 025°34'19 9.7
2015-Mar-23 00:32N 36°43' E 025°58'  

Dump ship's entire track history